createdAt,value
2023-04-29T00:02:05.543Z,9.60
2023-04-29T00:07:07.347Z,9.60
2023-04-29T00:12:10.443Z,9.50
2023-04-29T00:17:12.199Z,9.50
2023-04-29T00:22:14.057Z,9.50
2023-04-29T00:27:17.063Z,9.60
2023-04-29T00:32:19.289Z,9.60
2023-04-29T00:37:21.084Z,9.50
2023-04-29T00:42:25.361Z,9.40
2023-04-29T00:47:27.108Z,9.30
2023-04-29T00:52:31.159Z,9.30
2023-04-29T00:57:34.396Z,9.30
2023-04-29T01:02:36.319Z,9.40
2023-04-29T01:07:48.736Z,9.50
2023-04-29T01:12:58.673Z,9.60
2023-04-29T01:18:05.126Z,9.70
2023-04-29T01:23:06.839Z,9.90
2023-04-29T01:28:22.974Z,9.90
2023-04-29T01:33:35.843Z,9.80
2023-04-29T01:38:42.797Z,9.70
2023-04-29T01:43:49.873Z,9.70
2023-04-29T01:48:53.381Z,9.90
2023-04-29T01:53:55.111Z,10.10
2023-04-29T01:58:58.114Z,10.00
2023-04-29T02:04:00.012Z,10.00
2023-04-29T02:09:01.843Z,9.90
2023-04-29T02:14:04.923Z,9.80
2023-04-29T02:19:06.619Z,9.80
2023-04-29T02:24:10.677Z,9.90
2023-04-29T02:29:13.873Z,10.10
2023-04-29T02:34:15.564Z,10.20
2023-04-29T02:39:17.329Z,10.20
2023-04-29T02:44:20.400Z,10.30
2023-04-29T02:49:22.084Z,10.30
2023-04-29T02:54:23.913Z,10.40
2023-04-29T02:59:27.057Z,10.40
2023-04-29T03:04:28.934Z,10.40
2023-04-29T03:09:30.664Z,10.40
2023-04-29T03:14:33.771Z,10.40
2023-04-29T03:19:35.483Z,10.50
2023-04-29T03:24:37.448Z,10.50
2023-04-29T03:29:40.517Z,10.60
2023-04-29T03:34:42.299Z,10.70
2023-04-29T03:39:43.949Z,10.70
2023-04-29T03:44:47.017Z,10.60
2023-04-29T03:49:48.749Z,10.50
2023-04-29T03:54:50.457Z,10.60
2023-04-29T03:59:53.845Z,10.60
2023-04-29T04:04:55.718Z,10.60
2023-04-29T04:09:57.436Z,10.60
2023-04-29T04:15:00.528Z,10.60
2023-04-29T04:20:02.397Z,10.60
2023-04-29T04:25:04.941Z,10.60
2023-04-29T04:30:09.551Z,10.50
2023-04-29T04:35:11.226Z,10.40
2023-04-29T04:40:13.699Z,10.30
2023-04-29T04:45:16.808Z,10.30
2023-04-29T04:50:18.537Z,10.30
2023-04-29T04:55:20.248Z,10.40
2023-04-29T05:00:23.287Z,10.50
2023-04-29T05:05:25.066Z,10.60
2023-04-29T05:10:26.762Z,10.70
2023-04-29T05:15:29.770Z,10.80
2023-04-29T05:20:31.450Z,11.00
2023-04-29T05:25:33.164Z,11.10
2023-04-29T05:30:36.323Z,11.10
2023-04-29T05:35:38.099Z,11.20
2023-04-29T05:40:43.937Z,11.10
2023-04-29T05:45:48.341Z,11.00
2023-04-29T05:50:50.106Z,10.90
2023-04-29T05:55:51.751Z,10.90
2023-04-29T06:00:54.931Z,11.00
2023-04-29T06:05:57.147Z,11.00
2023-04-29T06:10:59.037Z,11.10
2023-04-29T06:16:02.260Z,11.30
2023-04-29T06:21:04.126Z,11.60
2023-04-29T06:26:05.902Z,11.70
2023-04-29T06:31:09.004Z,11.80
2023-04-29T06:36:10.660Z,11.80
2023-04-29T06:41:12.304Z,11.90
2023-04-29T06:46:15.395Z,12.10
2023-04-29T06:51:17.074Z,12.40
2023-04-29T06:56:19.047Z,12.80
2023-04-29T07:01:22.148Z,13.10
2023-04-29T07:06:23.844Z,13.20
2023-04-29T07:11:26.853Z,13.40
2023-04-29T07:16:29.876Z,13.50
2023-04-29T07:21:31.574Z,13.20
2023-04-29T07:26:33.400Z,13.40
2023-04-29T07:31:38.408Z,13.50
2023-04-29T07:36:40.234Z,13.60
2023-04-29T07:41:41.916Z,13.50
2023-04-29T07:46:45.123Z,13.30
2023-04-29T07:51:46.953Z,13.00
2023-04-29T07:56:48.608Z,12.90
2023-04-29T08:01:51.764Z,12.80
2023-04-29T08:06:53.544Z,12.70
2023-04-29T08:11:55.223Z,12.80
2023-04-29T08:16:58.409Z,12.70
2023-04-29T08:22:00.155Z,12.70
2023-04-29T08:27:01.889Z,12.70
2023-04-29T08:32:05.482Z,12.80
2023-04-29T08:37:07.175Z,12.60
2023-04-29T08:42:09.455Z,12.60
2023-04-29T08:47:13.095Z,12.70
2023-04-29T08:52:14.800Z,12.60
2023-04-29T08:57:16.590Z,12.70
2023-04-29T09:02:20.372Z,12.90
2023-04-29T09:07:22.820Z,12.80
2023-04-29T09:12:24.680Z,12.80
2023-04-29T09:17:43.466Z,12.80
2023-04-29T09:22:47.959Z,12.80
2023-04-29T09:27:50.070Z,12.90
2023-04-29T09:33:06.782Z,12.90
2023-04-29T09:38:10.995Z,12.90
2023-04-29T09:43:14.066Z,12.90
2023-04-29T09:48:17.168Z,13.00
2023-04-29T09:53:30.497Z,12.80
2023-04-29T09:58:33.536Z,12.60
2023-04-29T10:03:38.638Z,12.50
2023-04-29T10:08:40.890Z,12.60
2023-04-29T10:13:42.917Z,12.70
2023-04-29T10:18:54.668Z,12.90
2023-04-29T10:23:58.028Z,12.90
2023-04-29T10:29:03.629Z,13.00
2023-04-29T10:34:06.967Z,12.90
2023-04-29T10:39:16.180Z,12.90
2023-04-29T10:44:20.829Z,12.60
2023-04-29T10:49:25.513Z,12.50
2023-04-29T10:54:27.961Z,12.40
2023-04-29T10:59:45.164Z,12.30
2023-04-29T11:05:09.769Z,12.60
2023-04-29T11:10:13.235Z,12.70
2023-04-29T11:15:18.324Z,12.80
2023-04-29T11:20:23.115Z,13.10
2023-04-29T11:25:29.882Z,13.60
2023-04-29T11:30:32.006Z,13.90
2023-04-29T11:35:39.212Z,14.60
2023-04-29T11:40:42.428Z,14.80
2023-04-29T11:45:45.054Z,15.00
2023-04-29T11:50:59.945Z,15.60
2023-04-29T12:01:39.502Z,16.50
2023-04-29T12:06:42.798Z,16.10
2023-04-29T12:11:44.946Z,16.80
2023-04-29T12:16:46.860Z,17.70
2023-04-29T12:21:50.407Z,18.00
2023-04-29T12:26:52.463Z,16.80
2023-04-29T12:31:56.059Z,16.70
2023-04-29T12:37:00.272Z,17.10
2023-04-29T12:42:02.048Z,17.00
2023-04-29T12:47:08.742Z,16.80
2023-04-29T12:52:12.414Z,16.80
2023-04-29T12:57:14.466Z,16.60
2023-04-29T13:02:16.267Z,15.50
2023-04-29T13:07:19.405Z,15.00
2023-04-29T13:12:21.127Z,14.70
2023-04-29T13:17:22.866Z,14.40
2023-04-29T13:22:25.960Z,14.30
2023-04-29T13:27:27.857Z,14.30
2023-04-29T13:32:43.213Z,14.30
2023-04-29T13:37:49.327Z,14.40
2023-04-29T13:42:59.643Z,14.60
2023-04-29T13:48:17.048Z,14.50
2023-04-29T13:53:51.125Z,14.30
2023-04-29T14:03:55.418Z,14.40
2023-04-29T14:08:59.270Z,14.40
2023-04-29T14:14:01.770Z,14.40
2023-04-29T14:19:03.966Z,14.50
2023-04-29T14:24:07.313Z,14.50
2023-04-29T14:29:09.012Z,14.20
2023-04-29T14:34:10.822Z,14.10
2023-04-29T14:39:13.966Z,13.90
2023-04-29T14:44:15.741Z,13.80
2023-04-29T14:49:17.501Z,13.80
2023-04-29T14:54:20.650Z,13.60
2023-04-29T14:59:22.405Z,13.60
2023-04-29T15:04:24.143Z,13.60
2023-04-29T15:09:27.257Z,13.60
2023-04-29T15:14:28.967Z,13.70
2023-04-29T15:19:30.746Z,13.90
2023-04-29T15:24:33.896Z,13.80
2023-04-29T15:29:35.559Z,13.80
2023-04-29T15:34:38.305Z,13.70
2023-04-29T15:39:41.517Z,13.80
2023-04-29T15:44:43.252Z,13.70
2023-04-29T15:49:44.913Z,13.80
2023-04-29T15:54:48.057Z,13.80
2023-04-29T15:59:49.781Z,13.80
2023-04-29T16:04:51.526Z,13.70
2023-04-29T16:09:55.038Z,13.60
2023-04-29T16:14:57.048Z,13.60
2023-04-29T16:19:58.853Z,13.50
2023-04-29T16:25:01.970Z,13.40
2023-04-29T16:30:04.330Z,13.20
2023-04-29T16:35:06.654Z,13.10
2023-04-29T16:40:11.089Z,12.80
2023-04-29T16:45:12.914Z,12.60
2023-04-29T16:50:14.696Z,12.50
2023-04-29T16:55:17.929Z,12.60
2023-04-29T17:00:19.831Z,12.30
2023-04-29T17:05:21.616Z,12.30
2023-04-29T17:10:24.785Z,12.30
2023-04-29T17:15:26.624Z,12.30
2023-04-29T17:20:28.376Z,12.30
2023-04-29T17:25:31.735Z,12.20
2023-04-29T17:30:36.402Z,12.10
2023-04-29T17:35:38.511Z,12.10
2023-04-29T17:40:41.670Z,12.00
2023-04-29T17:45:43.433Z,12.10
2023-04-29T17:50:45.343Z,12.20
2023-04-29T17:55:48.690Z,12.10
2023-04-29T18:00:50.561Z,12.00
2023-04-29T18:05:52.341Z,12.10
2023-04-29T18:10:55.510Z,12.00
2023-04-29T18:15:59.134Z,12.00
2023-04-29T18:21:00.907Z,12.00
2023-04-29T18:26:06.417Z,11.90
2023-04-29T18:31:11.089Z,11.80
2023-04-29T18:36:12.872Z,11.80
2023-04-29T18:41:16.073Z,11.90
2023-04-29T18:46:17.844Z,11.80
2023-04-29T18:51:19.559Z,11.90
2023-04-29T18:56:22.750Z,11.80
2023-04-29T19:01:24.718Z,11.70
2023-04-29T19:06:26.639Z,11.60
2023-04-29T19:11:30.132Z,11.70
2023-04-29T19:16:36.300Z,11.70
2023-04-29T19:21:39.632Z,11.60
2023-04-29T19:26:42.862Z,11.60
2023-04-29T19:31:47.859Z,11.60
2023-04-29T19:36:49.729Z,11.70
2023-04-29T19:41:52.939Z,11.60
2023-04-29T19:46:54.906Z,11.50
2023-04-29T19:51:56.699Z,11.50
2023-04-29T19:57:00.221Z,11.50
2023-04-29T20:02:02.180Z,11.50
2023-04-29T20:07:04.004Z,11.40
2023-04-29T20:12:10.643Z,11.40
2023-04-29T20:17:15.731Z,11.30
2023-04-29T20:22:23.057Z,11.30
2023-04-29T20:27:26.457Z,11.20
2023-04-29T20:32:28.217Z,11.20
2023-04-29T20:37:29.973Z,11.10
2023-04-29T20:42:34.435Z,11.20
2023-04-29T20:47:36.147Z,11.20
2023-04-29T20:52:37.881Z,11.20
2023-04-29T20:57:40.936Z,11.20
2023-04-29T21:02:42.824Z,11.20
2023-04-29T21:07:46.523Z,11.20
2023-04-29T21:12:51.462Z,11.10
2023-04-29T21:17:53.299Z,11.00
2023-04-29T21:22:55.196Z,10.90
2023-04-29T21:27:58.399Z,10.80
2023-04-29T21:33:00.246Z,10.70
2023-04-29T21:38:01.987Z,10.70
2023-04-29T21:43:05.638Z,10.60
2023-04-29T21:48:14.588Z,10.60
2023-04-29T21:53:16.749Z,10.50
2023-04-29T21:58:19.867Z,10.60
2023-04-29T22:03:21.580Z,10.60
2023-04-29T22:08:23.618Z,10.60
2023-04-29T22:13:26.739Z,10.50
2023-04-29T22:18:28.440Z,10.50
2023-04-29T22:23:30.096Z,10.50
2023-04-29T22:28:36.494Z,10.50
2023-04-29T22:33:38.299Z,10.50
2023-04-29T22:38:40.038Z,10.50
2023-04-29T22:43:43.075Z,10.50
2023-04-29T22:48:45.348Z,10.50
2023-04-29T22:54:10.521Z,10.40
2023-04-29T22:59:31.887Z,10.40
2023-04-29T23:04:33.740Z,10.40
2023-04-29T23:09:35.454Z,10.40
2023-04-29T23:14:38.601Z,10.40
2023-04-29T23:19:40.336Z,10.40
2023-04-29T23:24:42.093Z,10.40
2023-04-29T23:29:45.950Z,10.40
2023-04-29T23:34:53.279Z,10.40
2023-04-29T23:39:56.760Z,10.40
2023-04-29T23:45:00.182Z,10.40
2023-04-29T23:50:01.938Z,10.50
2023-04-29T23:55:04.023Z,10.50
